createdAt,value
2018-10-15T00:02:25.072Z,24.25
2018-10-15T00:04:57.688Z,24.25
2018-10-15T00:07:30.337Z,24.24
2018-10-15T00:10:03.433Z,24.24
2018-10-15T00:12:36.157Z,24.21
2018-10-15T00:15:25.098Z,24.18
2018-10-15T00:17:57.732Z,24.16
2018-10-15T00:20:30.356Z,24.12
2018-10-15T00:23:02.989Z,24.07
2018-10-15T00:25:35.585Z,24.06
2018-10-15T00:28:08.603Z,24.04
2018-10-15T00:30:41.243Z,24.05
2018-10-15T00:33:13.809Z,24.03
2018-10-15T00:35:46.824Z,24.02
2018-10-15T00:38:19.591Z,24.01
2018-10-15T00:40:52.189Z,24.01
2018-10-15T00:43:25.261Z,23.98
2018-10-15T00:45:57.875Z,23.97
2018-10-15T00:48:30.605Z,23.97
2018-10-15T00:51:03.190Z,23.95
2018-10-15T00:53:35.807Z,23.94
2018-10-15T00:56:08.440Z,23.95
2018-10-15T00:58:41.020Z,23.92
2018-10-15T01:01:13.601Z,23.90
2018-10-15T01:03:46.599Z,23.90
2018-10-15T01:06:19.200Z,23.88
2018-10-15T01:08:51.775Z,23.88
2018-10-15T01:11:24.473Z,23.88
2018-10-15T01:13:57.024Z,23.86
2018-10-15T01:16:29.707Z,23.86
2018-10-15T01:19:02.373Z,23.84
2018-10-15T01:21:34.949Z,23.83
2018-10-15T01:24:08.256Z,23.83
2018-10-15T01:26:45.275Z,23.81
2018-10-15T01:29:18.047Z,23.81
2018-10-15T01:31:50.671Z,23.80
2018-10-15T01:34:23.599Z,23.78
2018-10-15T01:36:56.825Z,23.77
2018-10-15T01:39:29.962Z,23.75
2018-10-15T01:42:02.571Z,23.75
2018-10-15T01:44:35.204Z,23.75
2018-10-15T01:47:07.980Z,23.75
2018-10-15T01:49:40.559Z,23.74
2018-10-15T01:52:13.162Z,23.74
2018-10-15T01:54:46.470Z,23.74
2018-10-15T01:57:19.067Z,23.75
2018-10-15T01:59:51.711Z,23.76
2018-10-15T02:02:24.364Z,23.77
2018-10-15T02:04:56.940Z,23.78
2018-10-15T02:07:30.033Z,23.79
2018-10-15T02:10:02.623Z,23.79
2018-10-15T02:12:36.435Z,23.82
2018-10-15T02:15:09.823Z,23.87
2018-10-15T02:17:42.689Z,23.85
2018-10-15T02:20:15.558Z,23.86
2018-10-15T02:22:48.448Z,23.88
2018-10-15T02:25:21.201Z,23.90
2018-10-15T02:27:53.891Z,23.91
2018-10-15T02:30:26.432Z,23.92
2018-10-15T02:32:59.158Z,23.92
2018-10-15T02:35:31.860Z,23.91
2018-10-15T02:38:04.579Z,23.92
2018-10-15T02:40:37.308Z,23.92
2018-10-15T02:43:09.933Z,23.93
2018-10-15T02:45:42.564Z,23.93
2018-10-15T02:48:15.158Z,23.92
2018-10-15T02:50:47.706Z,23.93
2018-10-15T02:53:20.400Z,23.93
2018-10-15T02:55:52.936Z,23.94
2018-10-15T02:58:25.628Z,23.94
2018-10-15T03:00:58.164Z,23.91
2018-10-15T03:03:30.738Z,23.90
2018-10-15T03:06:03.304Z,23.87
2018-10-15T03:08:35.893Z,23.84
2018-10-15T03:11:08.470Z,23.81
2018-10-15T03:13:41.052Z,23.79
2018-10-15T03:16:13.629Z,23.81
2018-10-15T03:18:46.776Z,23.77
2018-10-15T03:21:19.352Z,23.75
2018-10-15T03:23:51.890Z,23.76
2018-10-15T03:26:24.543Z,23.78
2018-10-15T03:28:57.139Z,23.79
2018-10-15T03:31:29.709Z,23.80
2018-10-15T03:34:02.291Z,23.81
2018-10-15T03:36:34.851Z,23.78
2018-10-15T03:39:10.033Z,23.79
2018-10-15T03:41:42.711Z,23.77
2018-10-15T03:44:15.267Z,23.76
2018-10-15T03:46:47.832Z,23.76
2018-10-15T03:49:20.425Z,23.76
2018-10-15T03:51:52.952Z,23.74
2018-10-15T03:54:26.067Z,23.73
2018-10-15T03:56:58.643Z,23.71
2018-10-15T03:59:31.154Z,23.67
2018-10-15T04:02:03.816Z,23.64
2018-10-15T04:04:36.693Z,23.62
2018-10-15T04:07:09.924Z,23.61
2018-10-15T04:09:42.466Z,23.58
2018-10-15T04:12:15.082Z,23.58
2018-10-15T04:14:47.751Z,23.55
2018-10-15T04:17:20.401Z,23.49
2018-10-15T04:19:52.987Z,23.48
2018-10-15T04:22:25.612Z,23.48
2018-10-15T04:24:58.655Z,23.50
2018-10-15T04:27:31.354Z,23.50
2018-10-15T04:30:06.807Z,23.49
2018-10-15T04:32:39.917Z,23.51
2018-10-15T04:40:16.619Z,23.47
2018-10-15T04:42:49.675Z,23.44
2018-10-15T04:45:22.442Z,23.40
2018-10-15T04:47:55.999Z,23.39
2018-10-15T04:50:28.661Z,23.37
2018-10-15T04:53:01.432Z,23.38
2018-10-15T04:55:34.424Z,23.37
2018-10-15T04:58:07.210Z,23.29
2018-10-15T05:00:39.875Z,23.25
2018-10-15T05:03:12.666Z,23.27
2018-10-15T05:05:45.372Z,23.24
2018-10-15T05:08:18.249Z,23.24
2018-10-15T05:10:50.803Z,23.18
2018-10-15T05:13:24.048Z,23.18
2018-10-15T05:15:56.685Z,23.18
2018-10-15T05:18:29.776Z,23.20
2018-10-15T05:21:02.847Z,23.22
2018-10-15T05:23:35.943Z,23.25
2018-10-15T05:26:12.850Z,23.28
2018-10-15T05:28:45.403Z,23.27
2018-10-15T05:31:18.308Z,23.28
2018-10-15T05:33:50.935Z,23.27
2018-10-15T05:36:23.612Z,23.27
2018-10-15T05:38:56.106Z,23.25
2018-10-15T05:41:29.625Z,23.23
2018-10-15T05:44:02.279Z,23.22
2018-10-15T05:46:35.192Z,23.21
2018-10-15T05:49:08.502Z,23.20
2018-10-15T05:51:41.932Z,23.16
2018-10-15T05:54:14.629Z,23.12
2018-10-15T05:56:48.058Z,23.11
2018-10-15T05:59:22.171Z,23.10
2018-10-15T06:01:55.238Z,23.13
2018-10-15T06:04:28.235Z,23.17
2018-10-15T06:07:01.239Z,23.21
2018-10-15T06:09:33.905Z,23.23
2018-10-15T06:12:14.899Z,23.25
2018-10-15T06:14:48.034Z,23.25
2018-10-15T06:17:20.666Z,23.25
2018-10-15T06:19:53.831Z,23.27
2018-10-15T06:22:26.539Z,23.25
2018-10-15T06:24:59.600Z,23.25
2018-10-15T06:27:32.868Z,23.25
2018-10-15T06:30:05.867Z,23.25
2018-10-15T06:32:38.995Z,23.26
2018-10-15T06:35:11.618Z,23.25
2018-10-15T06:37:44.175Z,23.28
2018-10-15T06:40:16.731Z,23.28
2018-10-15T06:42:49.827Z,23.27
2018-10-15T06:45:22.474Z,23.27
2018-10-15T06:47:55.373Z,23.25
2018-10-15T06:50:27.947Z,23.25
2018-10-15T06:53:00.680Z,23.24
2018-10-15T06:55:33.407Z,23.23
2018-10-15T06:58:06.249Z,23.21
2018-10-15T07:00:38.839Z,23.21
2018-10-15T07:03:11.519Z,23.23
2018-10-15T07:05:44.927Z,23.27
2018-10-15T07:08:18.193Z,23.27
2018-10-15T07:10:50.740Z,23.27
2018-10-15T07:13:24.114Z,23.29
2018-10-15T07:15:56.741Z,23.28
2018-10-15T07:18:29.663Z,23.27
2018-10-15T07:21:02.632Z,23.25
2018-10-15T07:23:35.769Z,23.25
2018-10-15T07:26:08.421Z,23.28
2018-10-15T07:28:40.943Z,23.30
2018-10-15T07:31:13.650Z,23.33
2018-10-15T07:33:46.388Z,23.31
2018-10-15T07:36:19.179Z,23.36
2018-10-15T07:38:51.712Z,23.38
2018-10-15T07:41:24.283Z,23.40
2018-10-15T07:43:56.939Z,23.41
2018-10-15T07:46:30.387Z,23.42
2018-10-15T07:49:02.865Z,23.38
2018-10-15T07:51:35.440Z,23.43
2018-10-15T07:54:08.009Z,23.44
2018-10-15T07:56:40.609Z,23.45
2018-10-15T07:59:13.385Z,23.50
2018-10-15T08:01:45.955Z,23.55
2018-10-15T08:04:18.599Z,23.63
2018-10-15T08:06:51.238Z,23.66
2018-10-15T08:09:23.905Z,23.64
2018-10-15T08:11:56.456Z,23.65
2018-10-15T08:14:29.065Z,23.64
2018-10-15T08:17:02.766Z,23.67
2018-10-15T08:19:59.198Z,23.69
2018-10-15T08:22:32.184Z,23.67
2018-10-15T08:25:06.310Z,23.63
2018-10-15T08:27:39.817Z,23.67
2018-10-15T08:30:17.719Z,23.68
2018-10-15T08:32:50.572Z,23.71
2018-10-15T08:35:23.320Z,23.75
2018-10-15T08:37:56.255Z,23.78
2018-10-15T08:40:29.083Z,23.79
2018-10-15T08:43:02.139Z,23.78
2018-10-15T08:45:35.184Z,23.84
2018-10-15T08:48:07.845Z,23.90
2018-10-15T08:50:40.400Z,23.95
2018-10-15T08:53:13.268Z,23.97
2018-10-15T08:55:45.996Z,23.99
2018-10-15T08:58:19.199Z,24.03
2018-10-15T09:00:51.852Z,24.07
2018-10-15T09:03:24.744Z,24.11
2018-10-15T09:05:57.375Z,24.16
2018-10-15T09:08:30.126Z,24.22
2018-10-15T09:11:03.419Z,24.26
2018-10-15T09:13:35.900Z,24.31
2018-10-15T09:16:08.750Z,24.35
2018-10-15T09:18:41.514Z,24.39
2018-10-15T09:21:14.217Z,24.41
2018-10-15T09:23:46.757Z,24.43
2018-10-15T09:26:20.035Z,24.45
2018-10-15T09:28:52.600Z,24.50
2018-10-15T09:31:25.238Z,24.53
2018-10-15T09:33:57.707Z,24.58
2018-10-15T09:36:30.359Z,24.61
2018-10-15T09:39:03.126Z,24.62
2018-10-15T09:41:35.645Z,24.64
2018-10-15T09:44:09.973Z,24.67
2018-10-15T09:46:42.608Z,24.69
2018-10-15T09:49:15.138Z,24.73
2018-10-15T09:51:48.168Z,24.74
2018-10-15T09:54:20.720Z,24.74
2018-10-15T09:56:53.364Z,24.78
2018-10-15T09:59:25.900Z,24.79
2018-10-15T10:02:14.495Z,24.80
2018-10-15T10:04:47.115Z,24.85
2018-10-15T10:07:19.841Z,24.86
2018-10-15T10:09:52.384Z,24.89
2018-10-15T10:12:25.168Z,24.95
2018-10-15T10:14:57.917Z,25.00
2018-10-15T10:17:30.538Z,25.07
2018-10-15T10:20:03.045Z,25.13
2018-10-15T10:22:36.380Z,25.18
2018-10-15T10:25:10.655Z,25.24
2018-10-15T10:27:43.537Z,25.28
2018-10-15T10:30:17.173Z,25.36
2018-10-15T10:32:49.825Z,25.41
2018-10-15T10:36:08.927Z,25.48
2018-10-15T10:38:58.936Z,25.53
2018-10-15T10:41:31.566Z,25.55
2018-10-15T10:44:04.097Z,25.58
2018-10-15T10:46:36.782Z,25.65
2018-10-15T10:49:09.439Z,25.69
2018-10-15T10:51:42.600Z,25.71
2018-10-15T10:54:15.573Z,25.74
2018-10-15T10:56:48.291Z,25.78
2018-10-15T10:59:20.928Z,25.78
2018-10-15T11:01:53.573Z,25.79
2018-10-15T11:04:26.159Z,25.81
2018-10-15T11:06:58.868Z,25.81
2018-10-15T11:09:31.421Z,25.85
2018-10-15T11:12:04.208Z,25.87
2018-10-15T11:14:37.052Z,25.88
2018-10-15T11:17:09.674Z,25.87
2018-10-15T11:19:42.336Z,25.84
2018-10-15T11:22:15.047Z,25.83
2018-10-15T11:24:47.560Z,25.87
2018-10-15T11:27:20.165Z,25.88
2018-10-15T11:29:52.724Z,25.87
2018-10-15T11:32:25.638Z,25.88
2018-10-15T11:34:58.379Z,25.90
2018-10-15T11:37:30.988Z,25.91
2018-10-15T11:40:03.648Z,25.92
2018-10-15T11:42:36.586Z,25.93
2018-10-15T11:45:10.315Z,25.96
2018-10-15T11:47:42.945Z,25.99
2018-10-15T11:50:15.610Z,26.00
2018-10-15T11:52:48.918Z,26.00
2018-10-15T11:55:21.580Z,26.03
2018-10-15T11:57:54.354Z,26.04
2018-10-15T12:00:26.949Z,26.05
2018-10-15T12:02:59.531Z,26.06
2018-10-15T12:05:32.096Z,26.08
2018-10-15T12:08:05.094Z,26.06
2018-10-15T12:10:37.642Z,26.08
2018-10-15T12:13:10.460Z,26.10
2018-10-15T12:15:43.331Z,26.11
2018-10-15T12:18:15.919Z,26.14
2018-10-15T12:20:48.516Z,26.14
2018-10-15T12:23:21.600Z,26.15
2018-10-15T12:25:54.319Z,26.11
2018-10-15T12:28:27.578Z,26.11
2018-10-15T12:31:02.739Z,26.12
2018-10-15T12:33:35.426Z,26.10
2018-10-15T12:36:08.125Z,26.08
2018-10-15T12:38:41.444Z,26.09
2018-10-15T12:41:14.073Z,26.12
2018-10-15T12:43:47.340Z,26.14
2018-10-15T12:46:20.424Z,26.14
2018-10-15T12:48:54.943Z,26.16
2018-10-15T12:51:28.345Z,26.16
2018-10-15T12:54:01.067Z,26.15
2018-10-15T12:56:34.884Z,26.16
2018-10-15T12:59:07.715Z,26.16
2018-10-15T13:01:41.040Z,26.16
2018-10-15T13:04:13.717Z,26.18
2018-10-15T13:06:46.274Z,26.18
2018-10-15T13:09:19.449Z,26.16
2018-10-15T13:11:55.402Z,26.11
2018-10-15T13:14:28.400Z,26.10
2018-10-15T13:17:01.707Z,26.08
2018-10-15T13:19:34.992Z,26.12
2018-10-15T13:22:07.691Z,26.11
2018-10-15T13:24:40.641Z,26.06
2018-10-15T13:27:13.823Z,26.06
2018-10-15T13:29:47.001Z,26.05
2018-10-15T13:32:19.660Z,26.01
2018-10-15T13:34:52.711Z,25.96
2018-10-15T13:37:26.087Z,25.93
2018-10-15T13:40:00.219Z,25.92
2018-10-15T13:42:32.919Z,25.92
2018-10-15T13:45:05.948Z,25.90
2018-10-15T13:47:39.570Z,25.88
2018-10-15T13:50:13.373Z,25.84
2018-10-15T13:52:46.469Z,25.84
2018-10-15T13:55:19.076Z,25.81
2018-10-15T13:57:52.004Z,25.82
2018-10-15T14:00:41.977Z,25.83
2018-10-15T14:03:20.584Z,25.79
2018-10-15T14:05:54.438Z,25.76
2018-10-15T14:08:27.299Z,25.77
2018-10-15T14:10:59.939Z,25.76
2018-10-15T14:13:33.437Z,25.79
2018-10-15T14:16:06.867Z,25.82
2018-10-15T14:18:39.502Z,25.82
2018-10-15T14:21:13.225Z,25.81
2018-10-15T19:23:30.433Z,23.16
2018-10-15T19:29:00.902Z,23.37
2018-10-15T19:31:31.224Z,23.51
2018-10-15T19:34:01.715Z,23.64
2018-10-15T19:36:32.044Z,23.76
2018-10-15T19:39:02.452Z,23.86
2018-10-15T19:41:33.042Z,23.95
2018-10-15T19:51:33.381Z,25.28
2018-10-15T19:54:04.528Z,25.10
2018-10-15T19:56:35.966Z,24.98
2018-10-15T19:59:06.888Z,24.88
2018-10-15T20:01:37.249Z,24.82
2018-10-15T20:04:07.559Z,24.78
2018-10-15T20:06:38.915Z,24.75
2018-10-15T20:09:13.501Z,24.73
2018-10-15T20:11:44.053Z,24.66
2018-10-15T20:14:14.350Z,24.62
2018-10-15T20:16:44.693Z,24.56
2018-10-15T20:19:14.994Z,24.54
2018-10-15T20:21:45.341Z,24.55
2018-10-15T20:24:15.661Z,24.56
2018-10-15T20:26:45.993Z,24.56
2018-10-15T20:29:16.317Z,24.58
2018-10-15T20:31:46.633Z,24.57
2018-10-15T20:34:16.962Z,24.59
2018-10-15T20:36:47.302Z,24.58
2018-10-15T20:39:17.862Z,24.59
2018-10-15T20:41:48.597Z,24.58
2018-10-15T20:44:18.845Z,24.59
2018-10-15T20:46:49.216Z,24.52
2018-10-15T20:49:19.525Z,24.44
2018-10-15T20:51:49.860Z,24.40
2018-10-15T20:54:20.208Z,24.38
2018-10-15T20:56:50.473Z,24.36
2018-10-15T20:59:20.801Z,24.35
2018-10-15T21:01:51.261Z,24.35
2018-10-15T21:04:21.570Z,24.33
2018-10-15T21:06:51.884Z,24.33
2018-10-15T21:09:22.248Z,24.32
2018-10-15T21:11:52.598Z,24.30
2018-10-15T21:14:22.915Z,24.28
2018-10-15T21:16:54.228Z,24.30
2018-10-15T21:19:24.542Z,24.37
2018-10-15T21:21:54.968Z,24.41
2018-10-15T21:24:26.348Z,24.40
2018-10-15T21:27:00.426Z,24.39
2018-10-15T21:29:31.198Z,24.32
2018-10-15T21:32:01.553Z,24.30
2018-10-15T21:34:31.954Z,24.34
2018-10-15T21:37:03.005Z,24.39
2018-10-15T21:39:34.177Z,24.40
2018-10-15T21:42:04.664Z,24.43
2018-10-15T21:44:35.133Z,24.42
2018-10-15T21:47:05.741Z,24.42
2018-10-15T21:49:36.148Z,24.43
2018-10-15T21:52:07.822Z,24.44
2018-10-15T21:54:38.117Z,24.44
2018-10-15T21:57:08.432Z,24.43
2018-10-15T21:59:39.030Z,24.41
2018-10-15T22:02:09.411Z,24.35
2018-10-15T22:04:39.709Z,24.31
2018-10-15T22:07:10.073Z,24.29
2018-10-15T22:09:40.398Z,24.26
2018-10-15T22:12:10.646Z,24.25
2018-10-15T22:14:41.029Z,24.22
2018-10-15T22:17:11.317Z,24.21
2018-10-15T22:19:41.651Z,24.20
2018-10-15T22:22:11.917Z,24.19
2018-10-15T22:24:42.202Z,24.19
2018-10-15T22:27:12.450Z,24.19
2018-10-15T22:29:42.751Z,24.17
2018-10-15T22:32:13.057Z,24.16
2018-10-15T22:34:43.397Z,24.15
2018-10-15T22:37:13.733Z,24.13
2018-10-15T22:39:44.070Z,24.18
2018-10-15T22:42:14.377Z,24.23
2018-10-15T22:44:44.709Z,24.27
2018-10-15T22:47:15.026Z,24.28
2018-10-15T22:49:45.412Z,24.29
2018-10-15T22:52:15.705Z,24.31
2018-10-15T22:54:46.021Z,24.32
2018-10-15T22:57:16.401Z,24.31
2018-10-15T22:59:46.805Z,24.30
2018-10-15T23:02:17.161Z,24.29
2018-10-15T23:04:47.717Z,24.28
2018-10-15T23:07:18.148Z,24.26
2018-10-15T23:09:48.480Z,24.24
2018-10-15T23:12:18.785Z,24.25
2018-10-15T23:14:49.082Z,24.24
2018-10-15T23:17:19.393Z,24.24
2018-10-15T23:19:49.749Z,24.24
2018-10-15T23:22:20.113Z,24.24
2018-10-15T23:24:50.385Z,24.20
2018-10-15T23:27:20.761Z,24.16
2018-10-15T23:29:51.208Z,24.19
2018-10-15T23:32:21.545Z,24.18
2018-10-15T23:34:52.193Z,24.17
2018-10-15T23:37:22.526Z,24.09
2018-10-15T23:39:52.873Z,24.05
2018-10-15T23:42:23.185Z,23.99
2018-10-15T23:44:53.513Z,23.97
2018-10-15T23:47:23.902Z,23.95
2018-10-15T23:49:54.293Z,23.93
2018-10-15T23:52:24.651Z,23.92
2018-10-15T23:54:55.509Z,23.91
2018-10-15T23:57:25.885Z,23.90
2018-10-15T23:59:57.217Z,23.89
